createdAt,value
2023-03-07T00:02:16.394Z,24.13
2023-03-07T00:06:21.257Z,34.38
2023-03-07T00:10:26.162Z,36.88
2023-03-07T00:14:29.742Z,34.47
2023-03-07T00:18:34.807Z,32.78
2023-03-07T00:22:42.586Z,18.50
2023-03-07T00:26:48.755Z,34.22
2023-03-07T00:30:54.923Z,26.45
2023-03-07T00:35:01.101Z,34.90
2023-03-07T00:39:04.470Z,33.42
2023-03-07T00:43:08.877Z,29.20
2023-03-07T00:47:13.866Z,24.08
2023-03-07T00:51:22.400Z,9.40
2023-03-07T00:55:28.355Z,31.73
2023-03-07T00:59:32.987Z,32.38
2023-03-07T01:03:39.277Z,31.02
2023-03-07T01:07:42.530Z,33.72
2023-03-07T01:11:48.024Z,32.13
2023-03-07T01:15:55.731Z,39.92
2023-03-07T01:20:13.474Z,40.88
2023-03-07T01:24:18.169Z,43.75
2023-03-07T01:28:21.146Z,46.95
2023-03-07T01:32:25.969Z,44.65
2023-03-07T01:36:30.711Z,44.45
2023-03-07T01:40:33.904Z,39.05
2023-03-07T01:45:01.392Z,39.75
2023-03-07T01:49:11.394Z,45.95
2023-03-07T01:53:16.025Z,50.63
2023-03-07T01:57:21.903Z,44.17
2023-03-07T02:01:27.847Z,39.08
2023-03-07T02:05:38.252Z,43.30
2023-03-07T02:09:45.025Z,48.30
2023-03-07T02:13:50.882Z,43.40
2023-03-07T02:18:00.074Z,42.35
2023-03-07T02:22:12.846Z,25.88
2023-03-07T02:26:21.945Z,46.45
2023-03-07T02:30:27.153Z,38.08
2023-03-07T02:34:32.197Z,48.00
2023-03-07T02:38:38.367Z,43.65
2023-03-07T02:42:43.912Z,40.33
2023-03-07T02:46:48.631Z,41.60
2023-03-07T02:50:51.661Z,8.18
2023-03-07T02:54:54.615Z,50.35
2023-03-07T02:58:57.615Z,53.35
2023-03-07T03:03:02.186Z,45.45
2023-03-07T03:07:05.655Z,38.55
2023-03-07T03:11:10.702Z,39.72
2023-03-07T03:15:14.197Z,43.22
2023-03-07T03:19:20.421Z,44.05
2023-03-07T03:27:26.027Z,50.67
2023-03-07T03:31:30.668Z,41.22
2023-03-07T03:35:36.595Z,40.05
2023-03-07T03:39:40.052Z,48.63
2023-03-07T03:43:43.084Z,47.30
2023-03-07T03:47:48.578Z,46.67
2023-03-07T03:51:53.130Z,49.13
2023-03-07T03:56:03.058Z,43.83
2023-03-07T04:00:09.102Z,25.38
2023-03-07T04:04:12.090Z,36.63
2023-03-07T04:08:16.452Z,44.72
2023-03-07T04:12:19.563Z,36.83
2023-03-07T04:16:24.121Z,40.95
2023-03-07T04:20:27.580Z,44.85
2023-03-07T04:24:32.173Z,15.80
2023-03-07T04:28:45.970Z,43.42
2023-03-07T04:32:48.838Z,41.20
2023-03-07T04:36:54.973Z,40.08
2023-03-07T04:41:02.003Z,34.90
2023-03-07T04:45:05.731Z,41.35
2023-03-07T04:49:08.868Z,30.05
2023-03-07T04:53:11.695Z,30.58
2023-03-07T04:57:16.601Z,37.60
2023-03-07T05:01:20.227Z,34.95
2023-03-07T05:05:23.318Z,21.55
2023-03-07T05:09:26.484Z,39.63
2023-03-07T05:13:31.260Z,39.97
2023-03-07T05:17:34.396Z,29.88
2023-03-07T05:21:40.180Z,25.27
2023-03-07T05:25:43.656Z,31.70
2023-03-07T05:29:50.948Z,25.15
2023-03-07T05:33:56.699Z,36.90
2023-03-07T05:38:00.321Z,23.88
2023-03-07T05:42:03.402Z,21.27
2023-03-07T05:46:10.160Z,29.33
2023-03-07T05:50:16.633Z,19.58
2023-03-07T05:54:20.307Z,10.25
2023-03-07T05:58:24.456Z,31.02
2023-03-07T06:02:28.935Z,24.30
2023-03-07T06:06:32.778Z,24.58
2023-03-07T06:10:37.418Z,24.17
2023-03-07T06:14:40.475Z,22.20
2023-03-07T06:18:44.826Z,23.00
2023-03-07T06:22:48.113Z,7.80
2023-03-07T06:26:51.189Z,21.73
2023-03-07T06:30:54.291Z,22.23
2023-03-07T06:34:59.070Z,25.55
2023-03-07T06:39:02.261Z,29.33
2023-03-07T06:43:05.554Z,21.05
2023-03-07T06:47:08.631Z,28.48
2023-03-07T06:51:12.932Z,26.05
2023-03-07T06:55:19.024Z,23.80
2023-03-07T06:59:22.315Z,23.33
2023-03-07T07:03:26.122Z,19.98
2023-03-07T07:07:31.345Z,22.98
2023-03-07T07:11:37.709Z,21.27
2023-03-07T07:15:40.718Z,23.13
2023-03-07T07:23:47.821Z,22.98
2023-03-07T07:27:51.297Z,20.60
2023-03-07T07:31:54.579Z,22.15
2023-03-07T07:35:57.927Z,19.95
2023-03-07T07:40:02.238Z,21.05
2023-03-07T07:44:05.331Z,20.83
2023-03-07T07:48:08.219Z,19.17
2023-03-07T07:52:11.028Z,18.42
2023-03-07T07:56:18.319Z,19.52
2023-03-07T08:00:23.339Z,17.30
2023-03-07T08:04:26.310Z,15.50
2023-03-07T08:08:31.839Z,17.30
2023-03-07T08:12:36.370Z,20.95
2023-03-07T08:16:39.449Z,18.70
2023-03-07T08:20:42.659Z,19.30
2023-03-07T08:24:45.616Z,17.17
2023-03-07T08:28:50.324Z,19.00
2023-03-07T08:32:54.921Z,19.83
2023-03-07T08:36:59.832Z,17.65
2023-03-07T08:41:04.202Z,21.15
2023-03-07T08:45:10.235Z,20.50
2023-03-07T08:49:13.924Z,22.60
2023-03-07T08:53:18.000Z,20.65
2023-03-07T08:57:21.250Z,20.30
2023-03-07T09:01:28.723Z,26.23
2023-03-07T09:05:32.640Z,22.25
2023-03-07T09:09:35.563Z,24.17
2023-03-07T09:13:50.978Z,26.88
2023-03-07T09:17:55.980Z,19.45
2023-03-07T09:22:00.849Z,21.23
2023-03-07T09:26:05.832Z,23.63
2023-03-07T09:30:10.093Z,25.85
2023-03-07T09:34:15.591Z,25.48
2023-03-07T09:38:19.000Z,28.63
2023-03-07T09:42:29.256Z,22.13
2023-03-07T09:46:44.184Z,30.80
2023-03-07T09:50:53.808Z,26.90
2023-03-07T09:55:00.808Z,28.08
2023-03-07T09:59:21.972Z,35.20
2023-03-07T10:03:34.672Z,27.30
2023-03-07T10:07:42.696Z,30.73
2023-03-07T10:12:18.629Z,30.10
2023-03-07T10:16:31.053Z,34.38
2023-03-07T10:20:47.771Z,32.15
2023-03-07T10:25:15.711Z,31.60
2023-03-07T10:29:20.656Z,31.25
2023-03-07T10:33:23.577Z,34.22
2023-03-07T10:37:37.993Z,31.67
2023-03-07T10:41:42.783Z,30.98
2023-03-07T10:45:48.540Z,28.55
2023-03-07T10:49:54.289Z,29.30
2023-03-07T10:53:58.551Z,31.98
2023-03-07T10:58:30.082Z,29.73
2023-03-07T11:02:36.584Z,27.52
2023-03-07T11:06:41.620Z,26.92
2023-03-07T11:10:48.880Z,26.80
2023-03-07T11:14:55.238Z,28.58
2023-03-07T11:19:01.259Z,22.52
2023-03-07T11:23:19.671Z,25.80
2023-03-07T11:27:25.008Z,28.45
2023-03-07T11:31:34.713Z,27.25
2023-03-07T11:40:00.279Z,23.65
2023-03-07T11:44:34.512Z,23.50
2023-03-07T11:48:54.708Z,24.83
2023-03-07T11:53:19.736Z,17.08
2023-03-07T11:57:38.507Z,25.17
2023-03-07T12:01:54.773Z,21.40
2023-03-07T12:06:26.775Z,22.98
2023-03-07T12:10:44.440Z,16.90
2023-03-07T12:14:57.380Z,19.45
2023-03-07T12:19:14.660Z,25.27
2023-03-07T12:23:22.478Z,13.18
2023-03-07T12:27:31.301Z,21.77
2023-03-07T12:31:39.874Z,20.52
2023-03-07T12:35:48.488Z,20.95
2023-03-07T12:39:55.112Z,18.42
2023-03-07T12:44:06.878Z,15.10
2023-03-07T12:48:23.944Z,17.27
2023-03-07T12:52:41.840Z,17.50
2023-03-07T12:56:54.909Z,17.15
2023-03-07T13:01:04.228Z,18.13
2023-03-07T13:05:12.219Z,18.67
2023-03-07T13:09:21.585Z,21.35
2023-03-07T13:18:02.376Z,17.33
2023-03-07T13:22:26.333Z,18.27
2023-03-07T13:26:29.515Z,17.58
2023-03-07T13:30:33.341Z,16.52
2023-03-07T13:34:49.911Z,16.30
2023-03-07T13:38:55.061Z,17.70
2023-03-07T13:42:58.926Z,13.05
2023-03-07T13:47:05.921Z,16.38
2023-03-07T13:51:13.874Z,13.45
2023-03-07T13:55:42.119Z,12.00
2023-03-07T14:03:57.219Z,11.80
2023-03-07T14:08:04.063Z,13.43
2023-03-07T14:12:17.159Z,15.07
2023-03-07T14:16:35.700Z,15.25
2023-03-07T14:20:51.749Z,13.55
2023-03-07T14:25:09.982Z,14.20
2023-03-07T14:29:19.234Z,14.30
2023-03-07T14:33:24.436Z,16.95
2023-03-07T14:37:29.170Z,13.25
2023-03-07T14:41:45.643Z,14.73
2023-03-07T14:45:54.978Z,12.75
2023-03-07T14:50:08.849Z,15.50
2023-03-07T14:54:17.154Z,16.05
2023-03-07T14:58:25.118Z,15.20
2023-03-07T15:02:28.099Z,16.90
2023-03-07T15:06:32.312Z,12.68
2023-03-07T15:10:40.924Z,14.55
2023-03-07T15:14:48.160Z,14.88
2023-03-07T15:18:59.928Z,11.63
2023-03-07T15:23:06.064Z,13.88
2023-03-07T15:27:10.824Z,15.70
2023-03-07T15:31:17.503Z,15.15
2023-03-07T15:35:23.974Z,15.63
2023-03-07T15:39:34.653Z,15.73
2023-03-07T15:43:41.211Z,15.02
2023-03-07T15:47:45.273Z,14.88
2023-03-07T15:51:48.953Z,14.13
2023-03-07T16:00:04.891Z,13.15
2023-03-07T16:04:38.175Z,14.65
2023-03-07T16:08:41.147Z,16.88
2023-03-07T16:12:47.335Z,14.27
2023-03-07T16:16:50.380Z,18.77
2023-03-07T16:20:54.812Z,11.07
2023-03-07T16:24:59.032Z,19.58
2023-03-07T16:29:03.686Z,17.65
2023-03-07T16:33:06.715Z,17.05
2023-03-07T16:37:12.263Z,16.35
2023-03-07T16:41:18.925Z,13.95
2023-03-07T16:45:25.240Z,14.30
2023-03-07T16:49:28.254Z,14.48
2023-03-07T16:53:33.161Z,19.35
2023-03-07T16:57:36.527Z,17.05
2023-03-07T17:01:40.116Z,17.13
2023-03-07T17:05:45.851Z,16.10
2023-03-07T17:09:50.616Z,14.18
2023-03-07T17:13:56.399Z,16.63
2023-03-07T17:18:00.265Z,16.33
2023-03-07T17:22:06.598Z,13.38
2023-03-07T17:26:19.923Z,15.27
2023-03-07T17:30:24.728Z,12.63
2023-03-07T17:34:30.821Z,17.05
2023-03-07T17:38:37.132Z,16.65
2023-03-07T17:42:45.441Z,16.98
2023-03-07T17:46:48.518Z,13.35
2023-03-07T17:50:53.779Z,15.05
2023-03-07T17:54:56.961Z,16.17
2023-03-07T17:59:01.790Z,17.02
2023-03-07T18:03:05.020Z,15.73
2023-03-07T18:07:08.147Z,11.35
2023-03-07T18:11:13.781Z,13.20
2023-03-07T18:15:22.118Z,15.35
2023-03-07T18:19:27.217Z,17.48
2023-03-07T18:23:35.492Z,15.05
2023-03-07T18:27:43.185Z,15.73
2023-03-07T18:31:58.274Z,9.73
2023-03-07T18:36:01.719Z,16.35
2023-03-07T18:40:05.063Z,13.45
2023-03-07T18:44:08.298Z,15.85
2023-03-07T18:48:14.085Z,16.60
2023-03-07T18:52:19.028Z,15.20
2023-03-07T18:56:23.044Z,11.35
2023-03-07T19:00:29.308Z,16.13
2023-03-07T19:04:36.095Z,9.05
2023-03-07T19:08:39.288Z,14.23
2023-03-07T19:12:43.059Z,15.25
2023-03-07T19:16:48.166Z,17.80
2023-03-07T19:20:52.748Z,13.70
2023-03-07T19:24:56.037Z,15.38
2023-03-07T19:28:59.293Z,16.85
2023-03-07T19:33:05.357Z,15.82
2023-03-07T19:37:09.892Z,19.02
2023-03-07T19:41:15.141Z,12.02
2023-03-07T19:45:23.240Z,16.92
2023-03-07T19:49:27.195Z,13.13
2023-03-07T19:53:34.005Z,10.82
2023-03-07T19:57:37.348Z,12.55
2023-03-07T20:01:40.502Z,12.40
2023-03-07T20:09:54.019Z,12.82
2023-03-07T20:13:58.911Z,13.00
2023-03-07T20:18:06.066Z,14.10
2023-03-07T20:22:09.364Z,12.85
2023-03-07T20:26:17.112Z,11.18
2023-03-07T20:30:21.300Z,10.70
2023-03-07T20:34:26.862Z,8.77
2023-03-07T20:38:29.901Z,10.20
2023-03-07T20:42:34.452Z,11.40
2023-03-07T20:46:38.907Z,7.03
2023-03-07T20:50:44.744Z,9.13
2023-03-07T20:54:48.049Z,10.90
2023-03-07T20:58:54.378Z,10.50
2023-03-07T21:03:05.649Z,9.75
2023-03-07T21:07:09.405Z,12.40
2023-03-07T21:11:16.208Z,10.05
2023-03-07T21:15:21.217Z,11.23
2023-03-07T21:19:24.190Z,9.07
2023-03-07T21:23:27.392Z,12.93
2023-03-07T21:27:31.332Z,11.77
2023-03-07T21:31:37.249Z,8.15
2023-03-07T21:35:43.742Z,11.40
2023-03-07T21:39:49.632Z,9.23
2023-03-07T21:43:53.275Z,11.13
2023-03-07T21:47:58.034Z,8.50
2023-03-07T21:52:05.280Z,7.15
2023-03-07T21:56:28.492Z,12.45
2023-03-07T22:00:37.154Z,12.55
2023-03-07T22:04:47.151Z,9.60
2023-03-07T22:08:53.252Z,10.73
2023-03-07T22:12:56.398Z,8.57
2023-03-07T22:17:13.743Z,13.55
2023-03-07T22:21:54.492Z,6.78
2023-03-07T22:26:30.850Z,4.57
2023-03-07T22:30:39.504Z,5.25
2023-03-07T22:34:42.913Z,4.43
2023-03-07T22:48:59.480Z,7.90
2023-03-07T22:53:58.793Z,6.55
2023-03-07T22:58:21.716Z,7.18
2023-03-07T23:02:24.681Z,5.43
2023-03-07T23:06:29.673Z,4.05
2023-03-07T23:10:33.338Z,3.35
2023-03-07T23:18:43.930Z,4.55
2023-03-07T23:22:51.066Z,3.75
2023-03-07T23:26:54.238Z,4.38
2023-03-07T23:30:59.920Z,6.65
2023-03-07T23:35:06.909Z,6.82
2023-03-07T23:39:12.334Z,6.97
2023-03-07T23:43:16.671Z,5.40
2023-03-07T23:47:37.774Z,6.60
2023-03-07T23:51:47.572Z,4.47
2023-03-07T23:56:03.034Z,6.38
